Time;durP1;ratioP1;P1;durP2;ratioP2;P2;SDS_P1;SDS_P2;PMS_P1;PMS_P2;Temp;Humidity;BMP_temperature;BMP_pressure;BME280_temperature;BME280_humidity;BME280_pressure;Samples;Min_cycle;Max_cycle;Signal;HPM_P1;HPM_P2
2023/03/20 00:00:33;;;;;;;16.25;11.95;;;;;;;8.18;98.58;101933.31;5085345;28;20020;-83
2023/03/20 00:02:59;;;;;;;20.58;12.35;;;;;;;8.18;98.74;101935.94;5073743;28;20031;-83
2023/03/20 00:05:27;;;;;;;20.05;10.95;;;;;;;8.19;98.87;101939.44;5079668;28;20051;-83
2023/03/20 00:07:53;;;;;;;19.88;11.70;;;;;;;8.18;98.79;101943.88;5095684;28;20022;-83
2023/03/20 00:10:20;;;;;;;18.25;11.15;;;;;;;8.18;98.02;101928.00;5095272;28;20463;-83
2023/03/20 00:12:47;;;;;;;19.63;11.48;;;;;;;8.18;97.74;101933.31;5095360;28;20028;-83
2023/03/20 00:15:21;;;;;;;19.13;11.50;;;;;;;8.19;97.90;101940.28;5095254;28;20044;-83
2023/03/20 00:17:47;;;;;;;22.05;11.55;;;;;;;8.19;97.90;101942.09;5095558;28;20421;-83
2023/03/20 00:20:14;;;;;;;20.98;12.18;;;;;;;8.14;97.75;101937.00;5082707;28;20035;-83
2023/03/20 00:22:39;;;;;;;17.10;10.63;;;;;;;8.12;97.77;101937.09;5091889;28;20020;-83
2023/03/20 00:25:05;;;;;;;19.25;11.80;;;;;;;8.10;97.90;101932.81;5094800;28;20020;-83
2023/03/20 00:27:30;;;;;;;19.10;11.80;;;;;;;8.10;97.82;101927.53;5093939;28;20028;-83
2023/03/20 00:29:56;;;;;;;17.70;11.13;;;;;;;8.06;97.08;101915.34;5094677;28;20470;-83
2023/03/20 00:32:22;;;;;;;18.02;11.32;;;;;;;8.05;96.74;101911.88;5089307;28;20039;-83
2023/03/20 00:34:47;;;;;;;16.35;10.73;;;;;;;7.99;96.88;101906.84;5087232;28;20463;-83
2023/03/20 00:37:12;;;;;;;16.80;11.18;;;;;;;7.95;96.60;101907.97;5085792;28;20172;-83
2023/03/20 00:39:39;;;;;;;20.92;11.23;;;;;;;7.88;97.06;101899.47;5083305;28;20021;-83
2023/03/20 00:42:06;;;;;;;17.80;10.52;;;;;;;7.80;97.08;101898.97;5093546;28;20107;-83
2023/03/20 00:44:47;;;;;;;16.65;10.80;;;;;;;7.77;96.73;101899.97;5077098;28;20111;-83
2023/03/20 00:47:19;;;;;;;16.77;10.75;;;;;;;7.73;97.22;101903.69;5095834;28;20038;-83
2023/03/20 00:49:46;;;;;;;17.08;10.27;;;;;;;7.67;96.95;101889.91;5094647;28;20027;-83
2023/03/20 00:52:13;;;;;;;17.52;10.38;;;;;;;7.63;97.16;101890.97;5094832;28;20098;-83
2023/03/20 00:54:38;;;;;;;16.40;10.55;;;;;;;7.55;97.28;101901.94;5094856;28;20107;-83
2023/03/20 00:57:13;;;;;;;17.55;10.50;;;;;;;7.55;97.50;101905.41;5095036;28;20093;-83
2023/03/20 00:59:52;;;;;;;16.13;10.07;;;;;;;7.49;97.45;101905.69;5092365;28;20028;-83
2023/03/20 01:02:25;;;;;;;15.95;10.27;;;;;;;7.44;97.31;101925.34;5075120;28;20025;-83
2023/03/20 01:04:51;;;;;;;15.85;10.80;;;;;;;7.39;97.04;101926.44;5094237;28;20027;-83
2023/03/20 01:07:17;;;;;;;17.17;10.32;;;;;;;7.37;96.82;101941.47;5095192;28;20447;-83
2023/03/20 01:09:42;;;;;;;15.60;9.90;;;;;;;7.32;96.86;101940.84;5096098;28;20032;-83
2023/03/20 01:12:11;;;;;;;19.58;11.70;;;;;;;7.27;96.95;101960.47;5095742;28;20103;-83
2023/03/20 01:14:37;;;;;;;18.33;10.63;;;;;;;7.21;97.14;101954.53;5085701;28;20020;-83
2023/03/20 01:17:02;;;;;;;20.20;11.48;;;;;;;7.18;97.12;101937.97;5108474;28;20028;-82
2023/03/20 01:19:28;;;;;;;16.42;10.57;;;;;;;7.16;97.23;101935.41;5099052;28;20036;-82
2023/03/20 01:21:53;;;;;;;15.95;10.65;;;;;;;7.11;96.99;101918.03;5098528;28;20012;-82
2023/03/20 01:24:18;;;;;;;20.52;12.00;;;;;;;7.09;96.90;101914.59;5103904;28;20035;-83
2023/03/20 01:26:44;;;;;;;19.67;11.73;;;;;;;7.03;96.73;101916.59;5100246;28;20028;-83
2023/03/20 01:29:17;;;;;;;17.00;11.70;;;;;;;7.00;97.26;101918.50;5090466;28;20036;-83
2023/03/20 01:31:43;;;;;;;17.33;10.73;;;;;;;6.99;96.62;101940.56;5092808;28;20431;-83
2023/03/20 01:34:11;;;;;;;17.00;12.13;;;;;;;6.92;96.62;101939.97;5087714;28;20021;-83
2023/03/20 01:36:37;;;;;;;23.20;13.17;;;;;;;6.92;97.02;101926.75;5093389;28;20030;-83
2023/03/20 01:39:03;;;;;;;21.42;12.88;;;;;;;6.88;97.31;101933.13;5097174;28;20478;-83
2023/03/20 01:41:30;;;;;;;20.23;12.45;;;;;;;6.86;97.10;101919.09;5098908;28;20379;-82
2023/03/20 01:43:56;;;;;;;22.70;14.20;;;;;;;6.78;97.42;101916.81;5098795;28;20387;-83
2023/03/20 01:46:31;;;;;;;19.70;13.10;;;;;;;6.78;97.36;101922.09;5098635;28;20025;-83
2023/03/20 01:49:28;;;;;;;23.85;13.13;;;;;;;6.76;97.76;101923.94;5082891;28;20024;-83
2023/03/20 01:51:55;;;;;;;21.23;13.35;;;;;;;6.69;97.80;101919.84;5096774;28;20371;-83
2023/03/20 01:54:32;;;;;;;19.60;13.55;;;;;;;6.67;99.13;101916.41;5098062;28;20116;-83
2023/03/20 01:57:11;;;;;;;21.45;13.40;;;;;;;6.63;98.54;101918.34;5077909;28;20021;-83
2023/03/20 01:59:44;;;;;;;20.50;14.13;;;;;;;6.60;98.41;101913.19;5102812;28;20087;-83
2023/03/20 02:02:20;;;;;;;22.67;13.60;;;;;;;6.58;98.58;101924.75;5120352;28;20053;-83
2023/03/20 02:04:52;;;;;;;22.20;14.10;;;;;;;6.55;98.93;101923.06;5120476;28;20028;-83
2023/03/20 02:07:21;;;;;;;23.00;13.68;;;;;;;6.48;98.69;101908.44;5112854;28;20028;-83
2023/03/20 02:09:47;;;;;;;24.10;14.60;;;;;;;6.50;98.95;101916.28;5099606;28;20028;-83
2023/03/20 02:12:13;;;;;;;22.73;14.15;;;;;;;6.44;99.47;101939.34;5099503;28;20035;-83
2023/03/20 02:14:39;;;;;;;19.02;14.07;;;;;;;6.40;99.54;101935.13;5098203;28;20077;-83
2023/03/20 02:17:07;;;;;;;23.00;14.45;;;;;;;6.37;99.17;101937.91;5096170;28;20410;-83
2023/03/20 02:20:00;;;;;;;26.13;16.00;;;;;;;6.34;100.00;101943.28;5098856;28;20089;-82
2023/03/20 02:22:40;;;;;;;23.58;14.48;;;;;;;6.30;100.00;101934.66;5087008;28;20060;-83
2023/03/20 02:25:36;;;;;;;24.45;15.18;;;;;;;6.28;100.00;101943.56;5085346;28;20035;-83
2023/03/20 02:28:19;;;;;;;19.42;14.50;;;;;;;6.23;100.00;101945.53;5094989;28;20029;-83
2023/03/20 02:31:18;;;;;;;23.95;14.85;;;;;;;6.22;100.00;101954.34;5092378;28;20051;-83
2023/03/20 02:34:10;;;;;;;23.10;15.40;;;;;;;6.18;100.00;101945.72;5098416;28;20028;-83
2023/03/20 02:36:55;;;;;;;22.13;15.63;;;;;;;6.16;100.00;101933.50;5098173;28;20400;-83
2023/03/20 02:39:31;;;;;;;23.55;15.70;;;;;;;6.08;100.00;101923.28;5079803;28;20035;-83
2023/03/20 02:42:04;;;;;;;25.48;16.30;;;;;;;6.04;100.00;101919.03;5077564;28;20353;-83
2023/03/20 02:44:44;;;;;;;27.85;16.42;;;;;;;6.01;100.00;101916.50;5096263;28;20028;-83
2023/03/20 02:47:26;;;;;;;25.38;16.45;;;;;;;5.99;100.00;101915.72;5094591;28;20088;-83
2023/03/20 02:50:12;;;;;;;25.58;16.25;;;;;;;5.99;100.00;101919.22;5096315;28;20061;-83
2023/03/20 02:52:52;;;;;;;27.85;16.70;;;;;;;5.96;100.00;101905.25;5083057;28;20024;-83
2023/03/20 02:55:30;;;;;;;27.95;16.65;;;;;;;5.96;100.00;101913.16;5097449;28;20043;-83
2023/03/20 02:58:10;;;;;;;25.55;16.50;;;;;;;5.91;100.00;101908.94;5096815;28;20043;-83
2023/03/20 03:01:10;;;;;;;25.08;16.13;;;;;;;5.94;100.00;101913.22;5097438;28;20024;-83
2023/03/20 03:03:58;;;;;;;23.65;16.13;;;;;;;5.90;100.00;101904.59;5094330;28;20040;-83
2023/03/20 03:06:33;;;;;;;26.38;16.60;;;;;;;5.86;100.00;101905.66;5083216;28;20067;-83
2023/03/20 03:09:24;;;;;;;26.98;16.63;;;;;;;5.85;100.00;101897.78;5084184;28;20074;-83
2023/03/20 03:11:54;;;;;;;28.55;17.10;;;;;;;5.79;100.00;101898.03;5086382;28;20064;-83
2023/03/20 03:14:42;;;;;;;24.63;15.93;;;;;;;5.80;100.00;101894.47;5076941;28;20111;-83
2023/03/20 03:17:09;;;;;;;25.45;16.27;;;;;;;5.76;100.00;101891.09;5086344;28;20020;-83
2023/03/20 03:19:38;;;;;;;25.13;16.52;;;;;;;5.77;100.00;101878.78;5096951;28;20114;-83
2023/03/20 03:22:04;;;;;;;29.55;17.85;;;;;;;5.77;100.00;101882.28;5097294;28;20028;-83
2023/03/20 03:24:33;;;;;;;25.85;16.83;;;;;;;5.75;100.00;101884.13;5096827;28;20056;-83
2023/03/20 03:27:02;;;;;;;25.35;16.02;;;;;;;5.71;100.00;101871.97;5088223;28;20356;-83
2023/03/20 03:29:33;;;;;;;27.00;17.15;;;;;;;5.69;100.00;101866.75;5076192;28;20048;-82
2023/03/20 03:32:00;;;;;;;27.75;17.42;;;;;;;5.68;100.00;101874.72;5096466;28;20024;-83
2023/03/20 03:34:25;;;;;;;24.10;15.20;;;;;;;5.68;100.00;101882.63;5095786;28;20024;-83
2023/03/20 03:37:06;;;;;;;24.42;15.50;;;;;;;5.70;100.00;101883.44;5096041;28;20414;-83
2023/03/20 03:39:57;;;;;;;25.88;15.07;;;;;;;5.69;100.00;101877.28;5096563;28;20073;-83
2023/03/20 03:42:48;;;;;;;26.58;15.95;;;;;;;5.68;100.00;101875.59;5095110;28;20027;-83
2023/03/20 03:45:22;;;;;;;24.25;15.50;;;;;;;5.65;100.00;101862.53;5097106;28;20062;-83
2023/03/20 03:48:09;;;;;;;22.90;15.32;;;;;;;5.65;100.00;101859.03;5076196;28;20464;-83
2023/03/20 03:50:47;;;;;;;24.98;15.55;;;;;;;5.61;100.00;101868.81;5088795;28;20028;-83
2023/03/20 03:53:16;;;;;;;24.35;15.25;;;;;;;5.61;100.00;101867.97;5096971;28;20394;-83
2023/03/20 03:55:46;;;;;;;21.42;15.00;;;;;;;5.53;100.00;101860.38;5096995;28;20032;-83
2023/03/20 03:58:21;;;;;;;24.42;15.98;;;;;;;5.60;100.00;101868.91;5097194;28;20107;-83
2023/03/20 04:00:50;;;;;;;25.15;15.95;;;;;;;5.54;100.00;101865.56;5089913;28;20021;-83
2023/03/20 04:03:19;;;;;;;22.70;15.45;;;;;;;5.55;100.00;101866.44;5076305;28;20056;-83
2023/03/20 04:05:45;;;;;;;23.75;15.75;;;;;;;5.55;100.00;101863.81;5096036;28;20031;-83
2023/03/20 04:08:13;;;;;;;24.95;15.30;;;;;;;5.52;100.00;101859.50;5095798;28;20106;-83
2023/03/20 04:10:38;;;;;;;22.85;15.93;;;;;;;5.51;100.00;101855.19;5078073;28;20028;-83
2023/03/20 04:13:03;;;;;;;27.83;15.25;;;;;;;5.53;100.00;101853.34;5077860;28;20031;-83
2023/03/20 04:15:29;;;;;;;21.67;15.77;;;;;;;5.50;100.00;101849.97;5095326;28;20028;-83
2023/03/20 04:17:54;;;;;;;24.52;15.43;;;;;;;5.51;100.00;101852.53;5082236;28;20078;-83
2023/03/20 04:20:20;;;;;;;25.65;15.52;;;;;;;5.49;100.00;101854.34;5095562;28;20024;-83
2023/03/20 04:22:45;;;;;;;24.30;15.40;;;;;;;5.47;100.00;101852.72;5095293;28;20513;-83
2023/03/20 04:25:17;;;;;;;23.50;15.00;;;;;;;5.46;100.00;101850.97;5088083;28;20077;-83
2023/03/20 04:27:42;;;;;;;23.38;15.48;;;;;;;5.44;100.00;101847.56;5089720;28;20449;-83
2023/03/20 04:30:09;;;;;;;24.25;14.95;;;;;;;5.42;100.00;101852.88;5095311;28;20079;-83
2023/03/20 04:32:34;;;;;;;25.02;15.65;;;;;;;5.45;100.00;101854.56;5079843;28;20036;-83
2023/03/20 04:35:00;;;;;;;21.77;14.93;;;;;;;5.44;100.00;101858.09;5074268;28;20029;-83
2023/03/20 04:37:25;;;;;;;21.42;14.65;;;;;;;5.44;100.00;101850.19;5074713;28;20481;-83
2023/03/20 04:39:50;;;;;;;24.48;14.15;;;;;;;5.42;100.00;101850.25;5074156;28;20444;-82
2023/03/20 04:42:16;;;;;;;23.23;14.55;;;;;;;5.42;100.00;101844.13;5075890;28;20503;-82
2023/03/20 04:44:41;;;;;;;21.05;14.35;;;;;;;5.38;100.00;101843.41;5086626;28;20029;-82
2023/03/20 04:47:06;;;;;;;23.98;14.48;;;;;;;5.37;100.00;101846.94;5089189;28;20031;-82
2023/03/20 04:49:31;;;;;;;25.48;15.27;;;;;;;5.33;100.00;101833.03;5094354;28;20024;-82
2023/03/20 04:51:57;;;;;;;25.58;15.35;;;;;;;5.32;100.00;101831.31;5079603;28;20021;-82
2023/03/20 04:54:22;;;;;;;23.98;14.32;;;;;;;5.30;100.00;101827.88;5094084;28;20479;-82
2023/03/20 04:56:47;;;;;;;25.25;14.45;;;;;;;5.31;100.00;101829.59;5094426;28;20028;-82
2023/03/20 04:59:13;;;;;;;24.70;14.27;;;;;;;5.32;100.00;101830.44;5094725;28;20024;-82
2023/03/20 05:01:38;;;;;;;22.60;13.98;;;;;;;5.30;100.00;101834.94;5076359;28;20024;-82
2023/03/20 05:04:04;;;;;;;23.95;14.88;;;;;;;5.30;100.00;101833.16;5094094;28;20028;-82
2023/03/20 05:06:31;;;;;;;25.98;13.98;;;;;;;5.30;100.00;101835.78;5093582;28;20024;-82
2023/03/20 05:08:58;;;;;;;25.77;14.02;;;;;;;5.30;100.00;101838.41;5095749;28;20431;-82
2023/03/20 05:11:24;;;;;;;25.42;14.23;;;;;;;5.29;100.00;101834.03;5089112;28;20024;-83
2023/03/20 05:13:49;;;;;;;23.92;14.50;;;;;;;5.32;100.00;101841.00;5095382;28;20023;-82
2023/03/20 05:16:15;;;;;;;21.98;13.95;;;;;;;5.31;100.00;101829.59;5092631;28;20029;-82
2023/03/20 05:18:40;;;;;;;22.52;13.88;;;;;;;5.30;100.00;101827.03;5090889;28;20028;-82
2023/03/20 05:21:07;;;;;;;21.00;13.75;;;;;;;5.30;100.00;101824.41;5090776;28;20020;-82
2023/03/20 05:23:32;;;;;;;20.85;13.48;;;;;;;5.32;100.00;101827.81;5085216;28;20455;-82
2023/03/20 05:25:58;;;;;;;22.15;13.82;;;;;;;5.34;100.00;101823.34;5088298;28;20130;-82
2023/03/20 05:28:23;;;;;;;22.02;13.82;;;;;;;5.35;100.00;101823.28;5090928;28;20054;-83
2023/03/20 05:30:48;;;;;;;22.70;13.45;;;;;;;5.36;100.00;101816.22;5080860;28;20165;-82
2023/03/20 05:33:13;;;;;;;29.73;14.45;;;;;;;5.35;100.00;101827.72;5078702;28;20020;-82
2023/03/20 05:35:39;;;;;;;27.13;13.88;;;;;;;5.34;100.00;101826.81;5079565;28;20523;-82
2023/03/20 05:38:05;;;;;;;24.35;12.70;;;;;;;5.35;100.00;101819.81;5093164;28;20051;-82
2023/03/20 05:40:30;;;;;;;20.10;12.85;;;;;;;5.36;100.00;101827.66;5100439;28;20031;-82
2023/03/20 05:42:55;;;;;;;21.83;12.88;;;;;;;5.37;100.00;101823.22;5091671;28;20050;-82
2023/03/20 05:45:21;;;;;;;21.75;12.50;;;;;;;5.35;100.00;101823.28;5080240;28;20076;-82
2023/03/20 05:47:46;;;;;;;23.90;12.95;;;;;;;5.36;100.00;101819.75;5083850;28;20054;-82
2023/03/20 05:50:11;;;;;;;22.15;12.60;;;;;;;5.37;100.00;101829.34;5099065;28;20031;-82
2023/03/20 05:52:36;;;;;;;20.35;12.85;;;;;;;5.40;100.00;101830.16;5093595;28;20103;-82
2023/03/20 05:55:02;;;;;;;22.65;11.77;;;;;;;5.40;100.00;101833.66;5080321;28;20028;-83
2023/03/20 05:57:28;;;;;;;21.67;11.90;;;;;;;5.40;100.00;101836.28;5081355;28;20119;-83
2023/03/20 05:59:53;;;;;;;19.85;12.05;;;;;;;5.39;100.00;101839.81;5098734;28;20049;-82
2023/03/20 06:02:18;;;;;;;21.02;12.32;;;;;;;5.41;100.00;101845.88;5098880;28;20024;-82
2023/03/20 06:04:43;;;;;;;18.88;12.15;;;;;;;5.44;100.00;101851.03;5098073;28;20078;-82
2023/03/20 06:07:09;;;;;;;20.60;11.60;;;;;;;5.45;100.00;101860.69;5097893;28;20471;-82
2023/03/20 06:09:34;;;;;;;21.67;11.50;;;;;;;5.47;100.00;101852.72;5098162;28;20027;-82
2023/03/20 06:12:00;;;;;;;19.45;10.88;;;;;;;5.49;100.00;101853.50;5098029;28;20107;-83
2023/03/20 06:14:25;;;;;;;20.75;11.65;;;;;;;5.49;100.00;101859.63;5097971;28;20020;-83
2023/03/20 06:16:52;;;;;;;26.30;11.75;;;;;;;5.49;100.00;101856.13;5097551;28;20106;-83
2023/03/20 06:19:18;;;;;;;19.08;10.57;;;;;;;5.51;100.00;101851.66;5085069;28;20027;-83
2023/03/20 06:21:44;;;;;;;19.08;11.52;;;;;;;5.53;100.00;101857.75;5082459;28;20163;-83
2023/03/20 06:24:09;;;;;;;19.77;11.93;;;;;;;5.53;100.00;101863.88;5097314;28;20055;-83
2023/03/20 06:26:34;;;;;;;20.75;11.65;;;;;;;5.57;100.00;101864.59;5097723;28;20021;-83
2023/03/20 06:29:00;;;;;;;23.15;11.00;;;;;;;5.61;100.00;101868.81;5098492;28;20072;-83
2023/03/20 06:31:26;;;;;;;21.58;11.40;;;;;;;5.62;100.00;101867.06;5097908;28;20043;-83
2023/03/20 06:33:51;;;;;;;21.83;11.30;;;;;;;5.63;100.00;101866.13;5081697;28;20085;-83
2023/03/20 06:36:17;;;;;;;19.05;10.98;;;;;;;5.67;100.00;101873.00;5098208;28;20027;-83
2023/03/20 06:38:42;;;;;;;20.38;11.07;;;;;;;5.69;100.00;101873.81;5098678;28;20020;-83
2023/03/20 06:41:07;;;;;;;19.45;11.05;;;;;;;5.68;100.00;101869.44;5098133;28;20061;-83
2023/03/20 06:43:33;;;;;;;20.08;11.68;;;;;;;5.71;100.00;101869.31;5099896;28;20062;-83
2023/03/20 06:45:58;;;;;;;23.67;11.10;;;;;;;5.72;100.00;101877.16;5106695;28;20028;-83
2023/03/20 06:48:24;;;;;;;24.27;11.30;;;;;;;5.74;100.00;101882.38;5103855;28;20031;-83
2023/03/20 06:50:51;;;;;;;22.30;10.98;;;;;;;5.76;100.00;101893.72;5115211;28;20048;-83
2023/03/20 06:53:16;;;;;;;22.08;10.85;;;;;;;5.81;100.00;101893.53;5115977;28;20058;-83
2023/03/20 06:55:45;;;;;;;20.15;11.20;;;;;;;5.84;100.00;101902.19;5114980;28;20032;-83
2023/03/20 06:58:10;;;;;;;22.73;11.27;;;;;;;5.86;100.00;101910.03;5112821;28;20028;-83
2023/03/20 07:00:36;;;;;;;21.88;11.43;;;;;;;5.90;100.00;101903.75;5095902;28;20089;-83
2023/03/20 07:03:02;;;;;;;23.10;11.40;;;;;;;5.91;100.00;101908.06;5096358;28;20031;-83
2023/03/20 07:05:27;;;;;;;22.10;10.93;;;;;;;5.92;100.00;101910.66;5095811;28;20013;-82
2023/03/20 07:07:53;;;;;;;20.25;10.50;;;;;;;5.90;100.00;101903.75;5108218;28;20076;-82
2023/03/20 07:10:23;;;;;;;21.98;10.90;;;;;;;5.95;100.00;101914.97;5113707;28;20020;-83
2023/03/20 07:12:49;;;;;;;20.75;10.60;;;;;;;5.98;100.00;101916.63;5130732;28;20051;-80
2023/03/20 07:15:18;;;;;;;18.02;10.00;;;;;;;5.97;100.00;101918.41;5105760;28;20055;-80
2023/03/20 07:17:43;;;;;;;22.55;12.60;;;;;;;6.02;100.00;101919.09;5109006;28;20082;-83
2023/03/20 07:20:09;;;;;;;22.55;11.00;;;;;;;6.05;100.00;101921.59;5093431;28;20426;-83
2023/03/20 07:22:37;;;;;;;20.33;10.43;;;;;;;6.08;100.00;101918.84;5094413;28;20028;-83
2023/03/20 07:25:02;;;;;;;20.67;10.00;;;;;;;6.13;100.00;101918.66;5114290;28;20029;-83
2023/03/20 07:27:27;;;;;;;18.33;10.18;;;;;;;6.16;100.00;101928.22;5115969;28;20023;-83
2023/03/20 07:29:53;;;;;;;24.00;10.45;;;;;;;6.20;100.00;101927.19;5103758;28;20040;-83
2023/03/20 07:32:19;;;;;;;23.88;9.75;;;;;;;6.20;100.00;101917.50;5113137;28;20024;-83
2023/03/20 07:34:46;;;;;;;20.40;10.95;;;;;;;6.24;100.00;101926.13;5107722;28;20043;-83
2023/03/20 07:37:11;;;;;;;24.63;10.82;;;;;;;6.29;100.00;101926.78;5087689;28;20032;-83
2023/03/20 07:39:37;;;;;;;24.73;10.55;;;;;;;6.34;100.00;101931.91;5073002;28;20044;-83
2023/03/20 07:42:02;;;;;;;19.88;9.60;;;;;;;6.33;100.00;101931.03;5080144;28;20045;-83
2023/03/20 07:44:29;;;;;;;20.67;10.00;;;;;;;6.37;100.00;101934.41;5082000;28;20048;-83
2023/03/20 07:46:54;;;;;;;19.02;10.65;;;;;;;6.40;100.00;101929.00;5074018;28;20032;-83
2023/03/20 07:49:20;;;;;;;20.38;9.63;;;;;;;6.42;100.00;101928.00;5066010;28;20047;-83
2023/03/20 07:51:46;;;;;;;20.63;10.40;;;;;;;6.46;100.00;101924.34;5071523;28;20438;-83
2023/03/20 07:54:12;;;;;;;21.38;9.85;;;;;;;6.50;100.00;101922.41;5064423;28;20041;-83
2023/03/20 07:56:38;;;;;;;23.25;9.73;;;;;;;6.52;100.00;101923.19;5052339;28;20035;-83
2023/03/20 07:59:04;;;;;;;19.75;9.25;;;;;;;6.54;100.00;101924.00;5068155;28;20052;-83
2023/03/20 08:01:29;;;;;;;18.52;9.68;;;;;;;6.58;99.93;101925.59;5067861;28;20020;-83
2023/03/20 08:03:55;;;;;;;21.50;9.23;;;;;;;6.62;100.00;101928.94;5074512;28;20043;-83
2023/03/20 08:06:26;;;;;;;24.20;9.73;;;;;;;6.63;99.35;101925.41;5070994;28;20035;-83
2023/03/20 08:08:52;;;;;;;17.10;10.13;;;;;;;6.65;99.54;101924.41;5078346;28;20047;-83
2023/03/20 08:11:19;;;;;;;24.63;9.57;;;;;;;6.67;98.79;101927.81;5085511;28;20029;-83
2023/03/20 08:13:45;;;;;;;17.98;8.93;;;;;;;6.70;98.82;101926.84;5089635;28;20068;-83
2023/03/20 08:16:10;;;;;;;14.48;9.57;;;;;;;6.71;98.78;101920.66;5090454;28;20012;-84
2023/03/20 08:18:35;;;;;;;20.40;9.85;;;;;;;6.74;98.37;101925.78;5082990;28;20044;-83
2023/03/20 08:21:02;;;;;;;20.40;9.30;;;;;;;6.74;97.80;101925.78;5087424;28;20067;-83
2023/03/20 08:23:28;;;;;;;17.83;9.13;;;;;;;6.74;98.02;101931.06;5081081;28;20058;-83
2023/03/20 08:25:53;;;;;;;19.30;9.05;;;;;;;6.75;97.58;101922.22;5086761;28;20070;-83
2023/03/20 08:28:19;;;;;;;18.42;8.50;;;;;;;6.73;98.24;101918.78;5086232;28;20029;-83
2023/03/20 08:30:45;;;;;;;20.90;8.57;;;;;;;6.77;97.61;101925.66;5092785;28;20087;-83
2023/03/20 08:33:11;;;;;;;20.33;8.80;;;;;;;6.80;97.72;101925.53;5071199;28;20032;-83
2023/03/20 08:35:36;;;;;;;20.30;8.23;;;;;;;6.83;97.71;101925.38;5089161;28;20060;-83
2023/03/20 08:38:02;;;;;;;17.88;8.48;;;;;;;6.89;97.64;101921.63;5087111;28;20032;-83
2023/03/20 08:40:28;;;;;;;23.98;8.98;;;;;;;6.94;97.40;101931.97;5086243;28;20078;-83
2023/03/20 08:42:53;;;;;;;20.60;7.82;;;;;;;7.00;97.50;101931.72;5080811;28;20023;-83
2023/03/20 08:45:19;;;;;;;18.40;7.55;;;;;;;7.03;96.83;101932.44;5079558;28;20052;-83
2023/03/20 08:47:47;;;;;;;18.98;7.95;;;;;;;7.06;96.48;101931.47;5084566;28;20051;-83
2023/03/20 08:50:13;;;;;;;23.20;9.05;;;;;;;7.10;96.73;101933.03;5088784;28;20087;-83
2023/03/20 08:52:42;;;;;;;18.90;7.75;;;;;;;7.12;96.24;101920.59;5086130;28;20411;-83
2023/03/20 08:55:11;;;;;;;22.83;8.40;;;;;;;7.16;96.56;101921.31;5091152;28;20096;-83
2023/03/20 08:57:37;;;;;;;18.60;8.18;;;;;;;7.19;96.31;101923.81;5084621;28;20035;-83
2023/03/20 09:00:05;;;;;;;17.77;7.60;;;;;;;7.21;95.79;101924.59;5090094;28;20037;-84
2023/03/20 09:02:31;;;;;;;15.18;7.88;;;;;;;7.26;96.04;101920.00;5073907;28;20029;-83
2023/03/20 09:04:56;;;;;;;17.85;8.43;;;;;;;7.28;95.54;101922.53;5069853;28;20040;-83
2023/03/20 09:07:23;;;;;;;18.30;8.07;;;;;;;7.28;95.22;101933.09;5079013;28;20036;-83
2023/03/20 09:09:49;;;;;;;19.63;8.27;;;;;;;7.28;94.83;101925.19;5088922;28;20034;-83
2023/03/20 09:12:15;;;;;;;17.70;8.32;;;;;;;7.26;94.30;101929.69;5091256;28;20080;-83
2023/03/20 09:14:41;;;;;;;18.88;8.18;;;;;;;7.24;95.56;101929.75;5090282;28;20052;-83
2023/03/20 09:17:07;;;;;;;14.20;8.00;;;;;;;7.25;96.77;101939.41;5089144;28;20035;-83
2023/03/20 09:19:33;;;;;;;20.45;9.10;;;;;;;7.27;97.67;101934.91;5072890;28;20033;-83
2023/03/20 09:21:59;;;;;;;22.17;8.32;;;;;;;7.28;97.83;101943.69;5088106;28;20021;-83
2023/03/20 09:24:25;;;;;;;18.65;8.05;;;;;;;7.24;97.96;101937.69;5064140;28;20025;-83
2023/03/20 09:26:51;;;;;;;20.30;8.82;;;;;;;7.18;99.97;101946.75;5070690;28;20027;-83
2023/03/20 09:29:16;;;;;;;17.15;7.90;;;;;;;7.16;100.00;101951.25;5084624;28;20096;-84
2023/03/20 09:31:41;;;;;;;17.67;8.43;;;;;;;7.10;100.00;101943.59;5082887;28;20086;-84
2023/03/20 09:34:07;;;;;;;21.80;8.05;;;;;;;7.07;100.00;101938.44;5079836;28;20435;-84
2023/03/20 09:36:32;;;;;;;18.98;8.50;;;;;;;7.07;100.00;101942.88;5081844;28;20138;-84
2023/03/20 09:38:59;;;;;;;22.30;8.52;;;;;;;7.01;100.00;101942.22;5073353;28;20388;-84
2023/03/20 09:41:35;;;;;;;15.60;8.80;;;;;;;7.01;100.00;101939.59;5062132;28;20103;-84
2023/03/20 09:44:08;;;;;;;19.77;8.57;;;;;;;7.03;100.00;101947.44;5061603;28;20084;-84
2023/03/20 09:46:51;;;;;;;21.55;9.02;;;;;;;7.04;100.00;101936.81;5063355;28;20375;-84
2023/03/20 09:49:32;;;;;;;23.77;9.25;;;;;;;7.07;100.00;101940.22;5078594;28;20032;-85
2023/03/20 09:52:00;;;;;;;24.67;8.75;;;;;;;7.08;100.00;101939.28;5068486;28;20029;-85
2023/03/20 09:54:44;;;;;;;19.05;8.82;;;;;;;7.04;100.00;101933.28;5067758;28;20023;-84
2023/03/20 09:57:31;;;;;;;24.38;8.60;;;;;;;7.03;100.00;101936.88;5078538;28;20387;-84
2023/03/20 10:00:00;;;;;;;20.48;9.18;;;;;;;7.00;100.00;101932.56;5074210;28;20095;-84
2023/03/20 10:02:34;;;;;;;;;;;;;;;7.07;100.00;101935.81;5090828;28;20029;-84
2023/03/20 10:05:02;;;;;;;16.50;8.38;;;;;;;7.02;100.00;101930.72;5087488;28;19958;-84
2023/03/20 10:07:27;;;;;;;15.30;8.27;;;;;;;7.04;100.00;101934.16;5070755;28;20032;-84
2023/03/20 10:09:52;;;;;;;16.27;8.18;;;;;;;7.06;100.00;101942.03;5083179;28;20096;-84
2023/03/20 10:12:40;;;;;;;22.13;8.10;;;;;;;7.05;100.00;101927.09;5080925;28;20021;-84
2023/03/20 10:15:17;;;;;;;14.30;7.22;;;;;;;7.03;100.00;101926.31;5066823;28;20047;-85
2023/03/20 10:17:57;;;;;;;16.33;7.00;;;;;;;7.04;100.00;101928.00;5077931;28;20052;-84
2023/03/20 10:20:31;;;;;;;18.75;7.38;;;;;;;7.03;100.00;101923.66;5072245;28;20051;-84
2023/03/20 10:23:04;;;;;;;17.40;7.28;;;;;;;7.00;100.00;101911.44;5061417;28;20032;-84
2023/03/20 10:25:34;;;;;;;14.60;7.03;;;;;;;7.04;100.00;101917.44;5078200;28;20029;-84
2023/03/20 10:28:03;;;;;;;15.50;6.78;;;;;;;7.04;100.00;101909.50;5078018;28;20059;-84
2023/03/20 10:30:44;;;;;;;17.58;7.93;;;;;;;7.14;100.00;101912.59;5077821;28;20072;-84
2023/03/20 10:33:30;;;;;;;17.08;6.80;;;;;;;7.21;100.00;101911.38;5075610;28;20025;-84
2023/03/20 10:36:14;;;;;;;19.08;6.97;;;;;;;7.30;100.00;101908.34;5063412;28;20025;-83
2023/03/20 10:38:52;;;;;;;15.65;7.82;;;;;;;7.33;100.00;101910.84;5070892;28;20029;-83
2023/03/20 10:41:22;;;;;;;12.82;7.60;;;;;;;7.31;100.00;101904.78;5077928;28;20396;-83
2023/03/20 10:43:50;;;;;;;17.65;8.07;;;;;;;7.32;100.00;101903.84;5077351;28;20429;-83
2023/03/20 10:46:40;;;;;;;19.38;8.10;;;;;;;7.39;100.00;101910.56;5070603;28;20017;-83
2023/03/20 10:49:32;;;;;;;17.10;7.78;;;;;;;7.41;100.00;101908.72;5074680;28;20083;-83
2023/03/20 10:52:03;;;;;;;16.20;7.85;;;;;;;7.44;100.00;101909.50;5071275;28;20031;-83
2023/03/20 10:54:41;;;;;;;18.77;8.63;;;;;;;7.47;100.00;101912.84;5073862;28;20029;-83
2023/03/20 10:57:15;;;;;;;19.17;9.05;;;;;;;7.53;100.00;101914.38;5065165;28;20116;-83
2023/03/20 10:59:49;;;;;;;18.23;8.00;;;;;;;7.58;100.00;101917.66;5067310;28;20116;-83
2023/03/20 11:02:17;;;;;;;15.13;7.80;;;;;;;7.62;100.00;101902.50;5061376;28;20037;-83
2023/03/20 11:04:43;;;;;;;17.42;8.80;;;;;;;7.67;100.00;101903.13;5081086;28;20047;-83
2023/03/20 11:07:10;;;;;;;17.83;7.82;;;;;;;7.74;100.00;101902.78;5079236;28;20044;-83
2023/03/20 11:09:36;;;;;;;20.90;8.35;;;;;;;7.78;100.00;101896.41;5075260;28;20090;-83
2023/03/20 11:12:02;;;;;;;15.68;7.70;;;;;;;7.82;100.00;101898.91;5074238;28;20475;-83
2023/03/20 11:14:34;;;;;;;16.88;7.25;;;;;;;7.84;100.00;101897.03;5069717;28;20028;-83
2023/03/20 11:17:02;;;;;;;22.88;8.30;;;;;;;7.84;100.00;101892.59;5077501;28;20049;-83
2023/03/20 11:19:32;;;;;;;18.92;7.63;;;;;;;7.84;100.00;101887.28;5070757;28;20119;-83
2023/03/20 11:22:05;;;;;;;22.00;7.65;;;;;;;7.81;100.00;101879.53;5043848;28;20075;-83
2023/03/20 11:24:42;;;;;;;15.18;7.45;;;;;;;7.89;100.00;101880.03;5072511;28;20029;-83